Stations météo

Publicité
Salsburgh, Grande-Bretagne (99024): Température de l'air & dewpoint: 15.01.2018 14:00:00 - 21.01.2018 14:00:00 (GMT)Salsburgh, Grande-Bretagne (99024): Vitesse du vent & gusts: 15.01.2018 14:00:00 - 21.01.2018 14:00:00 (GMT)Salsburgh, Grande-Bretagne (99024): Direction du vent: 15.01.2018 14:00:00 - 21.01.2018 14:00:00 (GMT)Salsburgh, Grande-Bretagne (99024): Quantités de précipitations: 15.01.2018 14:00:00 - 21.01.2018 14:00:00 (GMT)
Date & Time tt [°C] td [°C] ff [km/h] ff [knt] fx [km/h] fx [knt] dd rr [mm]
21.01.2018 14:00:00 -0,2 -0,2 18 10 - - ESE 0,0
21.01.2018 13:00:00 -0,5 -0,8 15 8 - - ESE 0,0
21.01.2018 12:00:00 -0,3 -1,3 26 14 - - SSE 0,0
21.01.2018 11:00:00 -0,1 -3,0 24 13 - - SE 0,0
21.01.2018 10:00:00 -0,3 -3,7 24 13 - - SE 0,0
21.01.2018 09:00:00 -1,0 -4,1 22 12 - - SSE 0,0
21.01.2018 08:00:00 -1,3 -4,2 24 13 - - SSE 0,0
21.01.2018 07:00:00 -1,8 -4,6 16 9 - - ESE 0,0
21.01.2018 06:00:00 -2,0 -4,4 15 8 - - ESE 0,0
21.01.2018 05:00:00 -1,7 -4,2 11 6 - - SE 0,0
21.01.2018 04:00:00 -1,2 -3,6 8 4 - - ESE 0,0
21.01.2018 03:00:00 -2,6 -3,2 9 5 - - SE 0,0
21.01.2018 02:00:00 -2,7 -2,8 5 3 - - S 0,0
21.01.2018 01:00:00 -3,5 -3,6 8 4 - - S 0,0
21.01.2018 00:00:00 -3,5 -3,6 8 4 - - S 0,0
20.01.2018 23:00:00 -3,6 -3,6 5 3 - - S 0,0
20.01.2018 22:00:00 -2,6 -3,2 4 2 - - W 0,0
20.01.2018 21:00:00 -2,1 -3,0 5 3 - - NW 0,0
20.01.2018 20:00:00 -2,0 -2,3 5 3 - - WNW 0,0
20.01.2018 19:00:00 -2,1 -2,5 5 3 - - W 0,0
20.01.2018 18:00:00 -1,7 -2,1 5 3 - - WNW 0,0
20.01.2018 17:00:00 -1,3 -1,8 8 4 - - NW 0,0
20.01.2018 16:00:00 -0,4 -0,9 9 5 - - WNW 0,0
20.01.2018 15:00:00 -0,4 -0,7 5 3 - - W 0,2
20.01.2018 14:00:00 2,2 1,7 4 2 - - SW 0,0
20.01.2018 13:00:00 1,7 1,6 8 4 - - W 0,2
20.01.2018 12:00:00 0,7 0,6 4 2 - - NW 0,0
20.01.2018 11:00:00 -0,2 -0,2 5 3 - - WNW 0,0
20.01.2018 10:00:00 -1,2 -1,2 4 2 - - NNW 0,0
20.01.2018 09:00:00 -1,2 -1,2 8 4 - - W 0,0
20.01.2018 08:00:00 -1,9 -1,9 9 5 - - SW 0,0
20.01.2018 07:00:00 -2,0 -2,0 8 4 - - SSW 0,0
20.01.2018 06:00:00 -1,4 -1,4 13 7 - - WSW 0,0
20.01.2018 05:00:00 -1,1 -1,1 18 10 - - WSW 0,0
20.01.2018 04:00:00 -1,2 -1,2 13 7 - - WSW 0,0
20.01.2018 03:00:00 -0,6 -0,6 21 11 - - WSW 0,0
20.01.2018 02:00:00 -0,1 -0,1 18 10 - - WSW 0,0
20.01.2018 01:00:00 -0,1 -0,1 22 12 - - WSW 0,0
20.01.2018 00:00:00 0,0 0,0 22 12 - - WSW 0,0
19.01.2018 23:00:00 -0,2 -0,2 21 11 - - SSW 0,0
19.01.2018 22:00:00 -0,6 -0,6 16 9 - - SSW 0,0
19.01.2018 21:00:00 -0,5 -0,5 18 10 - - WSW 0,0
19.01.2018 20:00:00 -1,4 -1,4 21 11 - - SW 0,0
19.01.2018 19:00:00 -1,1 -1,1 13 7 - - SW 0,2
19.01.2018 18:00:00 -0,5 -0,5 21 11 - - WSW 0,4
19.01.2018 17:00:00 -0,6 -0,6 16 9 46 25 WSW 0,2
19.01.2018 16:00:00 -0,1 -0,1 44 24 57 31 W 0,2
19.01.2018 15:00:00 0,4 0,4 22 12 - - SW 0,0
19.01.2018 14:00:00 0,0 0,0 22 12 - - WSW 0,2
19.01.2018 13:00:00 -0,1 -0,1 31 17 - - WSW 0,0
19.01.2018 12:00:00 0,5 0,5 28 15 52 28 WSW 0,0
19.01.2018 11:00:00 0,2 0,2 31 17 - - WSW 0,0
19.01.2018 10:00:00 0,1 0,1 26 14 46 25 WSW 0,0
19.01.2018 09:00:00 -0,2 -0,2 29 16 - - WSW 0,0
19.01.2018 08:00:00 -0,1 -0,1 31 17 46 25 SW 0,0
19.01.2018 07:00:00 -0,2 -0,2 16 9 - - W 0,0
19.01.2018 06:00:00 -0,4 -0,4 13 7 - - SSW 0,0
19.01.2018 05:00:00 -0,5 -0,5 26 14 - - SW 0,0
19.01.2018 04:00:00 -0,4 -0,4 26 14 - - SW 0,0
19.01.2018 03:00:00 -0,3 -0,3 26 14 - - SW 0,0
19.01.2018 02:00:00 -1,0 -1,0 21 11 - - SSW 0,0
19.01.2018 01:00:00 -0,4 -0,4 18 10 - - SSW 0,0
19.01.2018 00:00:00 -1,3 -1,3 18 10 - - SW 0,0
18.01.2018 23:00:00 -0,9 -0,9 16 9 - - SW 0,0
18.01.2018 22:00:00 -0,3 -0,3 18 10 - - WSW 0,0
18.01.2018 21:00:00 -0,5 -0,5 21 11 - - WSW 0,0
18.01.2018 20:00:00 -0,7 -0,8 18 10 - - WSW 0,0
18.01.2018 19:00:00 -0,5 -0,5 18 10 - - WSW 0,0
18.01.2018 18:00:00 0,1 0,1 22 12 - - W 0,2
18.01.2018 17:00:00 0,3 0,3 21 11 - - W 0,4
18.01.2018 16:00:00 0,2 0,2 16 9 - - WSW 0,6
18.01.2018 15:00:00 0,2 0,2 22 12 - - W 4,6
18.01.2018 14:00:00 0,0 0,0 16 9 - - SW 1,2
18.01.2018 13:00:00 1,1 0,8 16 9 - - WSW 0,2
18.01.2018 12:00:00 1,1 0,8 26 14 - - W 0,0
18.01.2018 11:00:00 0,4 0,4 18 10 - - WSW 0,0
18.01.2018 10:00:00 -0,2 -0,2 11 6 - - SW 0,0
18.01.2018 09:00:00 -0,5 -0,5 11 6 - - SSW 0,0
18.01.2018 08:00:00 0,0 0,0 11 6 - - SW 0,0
18.01.2018 07:00:00 -0,1 -0,1 13 7 - - SSW 0,0
18.01.2018 06:00:00 -0,4 -0,4 15 8 - - WSW 0,0
18.01.2018 05:00:00 -0,2 -0,2 11 6 - - W 0,0
18.01.2018 04:00:00 -0,4 -0,4 9 5 - - WSW 0,0
18.01.2018 03:00:00 -0,4 -0,4 5 3 - - WSW 0,0
18.01.2018 02:00:00 -0,2 -0,2 4 2 - - NNW 0,0
18.01.2018 01:00:00 -0,1 -0,1 5 3 - - NNE 0,0
18.01.2018 00:00:00 -0,1 -0,1 5 3 - - SSE 0,0
17.01.2018 23:00:00 0,0 0,0 16 9 - - S 0,0
17.01.2018 22:00:00 0,4 0,3 22 12 - - S 0,0
17.01.2018 21:00:00 0,5 0,5 26 14 - - SSW 0,0
17.01.2018 20:00:00 0,4 0,2 21 11 - - SSW 0,0
17.01.2018 19:00:00 0,4 -0,5 21 11 - - SW 0,0
17.01.2018 18:00:00 0,4 -0,2 24 13 - - WSW 0,0
17.01.2018 17:00:00 0,4 0,4 18 10 - - SW 0,0
17.01.2018 16:00:00 0,4 0,4 24 13 - - WSW 0,0
17.01.2018 15:00:00 0,0 0,0 29 16 46 25 W 0,0
17.01.2018 14:00:00 0,4 0,4 34 18 57 31 W 0,0
17.01.2018 13:00:00 0,0 0,0 46 25 68 37 W 0,0
17.01.2018 12:00:00 0,6 0,6 31 17 - - WSW 0,0
17.01.2018 11:00:00 0,2 0,2 26 14 - - WSW 0,0
17.01.2018 10:00:00 -0,4 -0,4 29 16 - - W 0,0
17.01.2018 09:00:00 -0,7 -0,7 26 14 - - WSW 0,0
17.01.2018 08:00:00 -1,0 -1,0 26 14 - - W 0,0
17.01.2018 07:00:00 -1,4 -1,4 26 14 - - WNW 0,0
17.01.2018 06:00:00 -1,3 -1,3 24 13 - - W 0,0
17.01.2018 05:00:00 -0,6 -0,6 37 20 50 27 WNW 0,0
17.01.2018 04:00:00 -1,2 -1,2 29 16 - - W 0,0
17.01.2018 03:00:00 -1,0 -1,0 22 12 - - WSW 0,0
17.01.2018 02:00:00 -1,4 -1,4 21 11 - - WSW 0,0
17.01.2018 01:00:00 -1,8 -1,8 18 10 - - WSW 0,0
17.01.2018 00:00:00 -1,4 -1,4 15 8 - - WSW 0,0
16.01.2018 23:00:00 -1,8 -1,8 22 12 - - WSW 0,0
16.01.2018 22:00:00 -1,9 -1,9 24 13 - - SSW 0,0
16.01.2018 21:00:00 -1,7 -1,7 24 13 - - SW 0,0
16.01.2018 20:00:00 -1,3 -1,3 24 13 - - WSW 0,0
16.01.2018 19:00:00 -2,0 -2,0 26 14 65 35 WSW 0,0
16.01.2018 18:00:00 -1,4 -1,4 21 11 - - SW 0,0
16.01.2018 17:00:00 -1,2 -1,2 29 16 52 28 W 0,0
16.01.2018 16:00:00 -1,2 -1,2 21 11 - - SW 0,0
16.01.2018 15:00:00 -1,1 -1,1 28 15 - - SW 0,0
16.01.2018 14:00:00 -1,2 -1,2 28 15 50 27 SW 0,0
16.01.2018 13:00:00 -1,0 -1,0 22 12 57 31 SW 0,0
16.01.2018 12:00:00 -0,6 -0,6 28 15 50 27 WSW 0,0
16.01.2018 11:00:00 -0,5 -0,5 22 12 - - SW 0,0
16.01.2018 10:00:00 -0,6 -0,6 24 13 - - SW 0,0
16.01.2018 09:00:00 -0,6 -0,6 26 14 - - W 0,0
16.01.2018 08:00:00 -0,6 -0,6 22 12 - - WSW 0,0
16.01.2018 07:00:00 -0,7 -0,7 21 11 - - WSW 0,0
16.01.2018 06:00:00 -0,6 -0,6 24 13 - - SW 0,0
16.01.2018 05:00:00 -0,9 -0,9 21 11 - - SW 0,0
16.01.2018 04:00:00 -0,5 -0,5 24 13 - - W 0,0
16.01.2018 03:00:00 -0,7 -0,7 31 17 48 26 W 0,0
16.01.2018 02:00:00 -0,6 -0,6 24 13 - - WSW 0,0
16.01.2018 01:00:00 -0,6 -0,6 28 15 - - SW 0,0
16.01.2018 00:00:00 -0,2 -0,2 24 13 - - W 0,0
15.01.2018 23:00:00 0,2 0,2 24 13 - - WSW 0,2
15.01.2018 22:00:00 0,1 0,1 24 13 - - WSW 0,0
15.01.2018 21:00:00 0,1 0,1 18 10 - - WSW 0,0
15.01.2018 20:00:00 0,2 0,2 22 12 - - WSW 0,0
15.01.2018 19:00:00 1,0 0,9 21 11 - - W 0,4
15.01.2018 18:00:00 1,3 1,1 18 10 - - SW 0,2
15.01.2018 17:00:00 1,7 1,3 21 11 - - WSW 0,2
15.01.2018 16:00:00 2,0 1,2 26 14 52 28 W 0,4
15.01.2018 15:00:00 2,9 1,8 37 20 48 26 W 0,0
15.01.2018 14:00:00 3,4 1,9 37 20 54 29 W 0,0

tt = Température de l'air
td = dewpoint
ff = Vitesse du vent
fx = gusts
dd = Direction du vent
rr = Quantités de précipitations

stations d'obs. à proximité